sensor_id;sensor_type;location;lat;lon;timestamp;P1;durP1;ratioP1;P2;durP2;ratioP2
8319;SDS011;4197;42.130;24.746;2022-12-18T00:00:03;89.80;;;51.10;;
8319;SDS011;4197;42.130;24.746;2022-12-18T00:02:34;88.60;;;50.20;;
8319;SDS011;4197;42.130;24.746;2022-12-18T00:05:02;90.70;;;50.40;;
8319;SDS011;4197;42.130;24.746;2022-12-18T00:07:30;95.13;;;53.53;;
8319;SDS011;4197;42.130;24.746;2022-12-18T00:09:58;92.43;;;51.57;;
8319;SDS011;4197;42.130;24.746;2022-12-18T00:12:26;87.97;;;50.83;;
8319;SDS011;4197;42.130;24.746;2022-12-18T00:14:55;94.63;;;51.67;;
8319;SDS011;4197;42.130;24.746;2022-12-18T00:17:23;82.33;;;50.07;;
8319;SDS011;4197;42.130;24.746;2022-12-18T00:19:53;87.00;;;50.67;;
8319;SDS011;4197;42.130;24.746;2022-12-18T00:22:21;89.60;;;49.17;;
8319;SDS011;4197;42.130;24.746;2022-12-18T00:24:49;86.57;;;51.40;;
8319;SDS011;4197;42.130;24.746;2022-12-18T00:27:17;80.97;;;48.90;;
8319;SDS011;4197;42.130;24.746;2022-12-18T00:29:46;85.40;;;49.20;;
8319;SDS011;4197;42.130;24.746;2022-12-18T00:32:16;79.37;;;48.37;;
8319;SDS011;4197;42.130;24.746;2022-12-18T00:34:44;82.67;;;49.20;;
8319;SDS011;4197;42.130;24.746;2022-12-18T00:37:13;85.27;;;48.57;;
8319;SDS011;4197;42.130;24.746;2022-12-18T00:39:47;84.23;;;48.63;;
8319;SDS011;4197;42.130;24.746;2022-12-18T00:42:15;83.83;;;51.50;;
8319;SDS011;4197;42.130;24.746;2022-12-18T00:45:01;96.37;;;55.07;;
8319;SDS011;4197;42.130;24.746;2022-12-18T00:47:37;89.57;;;54.50;;
8319;SDS011;4197;42.130;24.746;2022-12-18T00:50:06;91.13;;;50.73;;
8319;SDS011;4197;42.130;24.746;2022-12-18T00:52:36;87.40;;;49.30;;
8319;SDS011;4197;42.130;24.746;2022-12-18T00:55:05;84.17;;;49.77;;
8319;SDS011;4197;42.130;24.746;2022-12-18T00:57:33;82.30;;;47.97;;
8319;SDS011;4197;42.130;24.746;2022-12-18T01:00:02;98.30;;;52.13;;
8319;SDS011;4197;42.130;24.746;2022-12-18T01:02:31;99.30;;;49.57;;
8319;SDS011;4197;42.130;24.746;2022-12-18T01:04:59;121.30;;;51.67;;
8319;SDS011;4197;42.130;24.746;2022-12-18T01:07:28;161.03;;;51.53;;
8319;SDS011;4197;42.130;24.746;2022-12-18T01:09:58;73.23;;;45.47;;
8319;SDS011;4197;42.130;24.746;2022-12-18T01:12:26;88.23;;;45.23;;
8319;SDS011;4197;42.130;24.746;2022-12-18T01:14:54;138.33;;;47.67;;
8319;SDS011;4197;42.130;24.746;2022-12-18T01:17:22;92.50;;;44.33;;
8319;SDS011;4197;42.130;24.746;2022-12-18T01:19:50;78.00;;;45.57;;
8319;SDS011;4197;42.130;24.746;2022-12-18T01:22:18;70.57;;;43.27;;
8319;SDS011;4197;42.130;24.746;2022-12-18T01:24:46;75.07;;;47.13;;
8319;SDS011;4197;42.130;24.746;2022-12-18T01:27:16;73.97;;;44.80;;
8319;SDS011;4197;42.130;24.746;2022-12-18T01:29:44;74.67;;;44.27;;
8319;SDS011;4197;42.130;24.746;2022-12-18T01:32:12;74.13;;;43.87;;
8319;SDS011;4197;42.130;24.746;2022-12-18T01:34:40;72.77;;;43.83;;
8319;SDS011;4197;42.130;24.746;2022-12-18T01:37:08;73.50;;;46.63;;
8319;SDS011;4197;42.130;24.746;2022-12-18T01:39:37;77.87;;;44.93;;
8319;SDS011;4197;42.130;24.746;2022-12-18T01:42:10;68.63;;;43.80;;
8319;SDS011;4197;42.130;24.746;2022-12-18T01:45:01;77.60;;;49.67;;
8319;SDS011;4197;42.130;24.746;2022-12-18T01:47:35;72.97;;;42.63;;
8319;SDS011;4197;42.130;24.746;2022-12-18T01:50:07;79.27;;;47.23;;
8319;SDS011;4197;42.130;24.746;2022-12-18T01:52:38;74.27;;;44.20;;
8319;SDS011;4197;42.130;24.746;2022-12-18T01:55:08;69.43;;;42.00;;
8319;SDS011;4197;42.130;24.746;2022-12-18T01:57:37;61.97;;;38.13;;
8319;SDS011;4197;42.130;24.746;2022-12-18T02:00:10;50.37;;;33.00;;
8319;SDS011;4197;42.130;24.746;2022-12-18T02:02:41;49.37;;;32.50;;
8319;SDS011;4197;42.130;24.746;2022-12-18T02:05:10;45.23;;;31.37;;
8319;SDS011;4197;42.130;24.746;2022-12-18T02:07:42;43.60;;;30.13;;
8319;SDS011;4197;42.130;24.746;2022-12-18T02:10:17;43.73;;;28.03;;
8319;SDS011;4197;42.130;24.746;2022-12-18T02:12:52;40.43;;;27.13;;
8319;SDS011;4197;42.130;24.746;2022-12-18T02:15:31;37.30;;;26.27;;
8319;SDS011;4197;42.130;24.746;2022-12-18T02:18:05;36.07;;;25.30;;
8319;SDS011;4197;42.130;24.746;2022-12-18T02:20:41;36.63;;;25.43;;
8319;SDS011;4197;42.130;24.746;2022-12-18T02:23:16;36.10;;;25.53;;
8319;SDS011;4197;42.130;24.746;2022-12-18T02:26:06;36.17;;;25.07;;
8319;SDS011;4197;42.130;24.746;2022-12-18T02:28:42;34.60;;;24.20;;
8319;SDS011;4197;42.130;24.746;2022-12-18T02:31:14;35.37;;;25.53;;
8319;SDS011;4197;42.130;24.746;2022-12-18T02:33:47;35.97;;;23.43;;
8319;SDS011;4197;42.130;24.746;2022-12-18T02:36:17;32.90;;;22.83;;
8319;SDS011;4197;42.130;24.746;2022-12-18T02:38:47;33.43;;;24.60;;
8319;SDS011;4197;42.130;24.746;2022-12-18T02:41:19;32.33;;;23.63;;
8319;SDS011;4197;42.130;24.746;2022-12-18T02:43:48;31.47;;;23.60;;
8319;SDS011;4197;42.130;24.746;2022-12-18T02:46:24;29.77;;;22.47;;
8319;SDS011;4197;42.130;24.746;2022-12-18T02:48:59;32.50;;;23.53;;
8319;SDS011;4197;42.130;24.746;2022-12-18T02:51:36;29.57;;;22.23;;
8319;SDS011;4197;42.130;24.746;2022-12-18T02:54:15;33.73;;;22.50;;
8319;SDS011;4197;42.130;24.746;2022-12-18T02:56:50;30.20;;;21.97;;
8319;SDS011;4197;42.130;24.746;2022-12-18T02:59:23;32.53;;;22.17;;
8319;SDS011;4197;42.130;24.746;2022-12-18T03:01:58;31.90;;;21.83;;
8319;SDS011;4197;42.130;24.746;2022-12-18T03:04:33;30.33;;;21.47;;
8319;SDS011;4197;42.130;24.746;2022-12-18T03:07:08;30.80;;;22.17;;
8319;SDS011;4197;42.130;24.746;2022-12-18T03:09:41;31.03;;;22.57;;
8319;SDS011;4197;42.130;24.746;2022-12-18T03:12:15;32.03;;;22.63;;
8319;SDS011;4197;42.130;24.746;2022-12-18T03:14:53;29.00;;;21.37;;
8319;SDS011;4197;42.130;24.746;2022-12-18T03:17:26;30.07;;;22.43;;
8319;SDS011;4197;42.130;24.746;2022-12-18T03:19:58;29.57;;;21.27;;
8319;SDS011;4197;42.130;24.746;2022-12-18T03:22:30;30.50;;;21.60;;
8319;SDS011;4197;42.130;24.746;2022-12-18T03:25:01;29.73;;;21.20;;
8319;SDS011;4197;42.130;24.746;2022-12-18T03:27:33;29.47;;;21.23;;
8319;SDS011;4197;42.130;24.746;2022-12-18T03:30:05;33.50;;;21.97;;
8319;SDS011;4197;42.130;24.746;2022-12-18T03:32:38;29.20;;;20.37;;
8319;SDS011;4197;42.130;24.746;2022-12-18T03:35:09;29.83;;;20.37;;
8319;SDS011;4197;42.130;24.746;2022-12-18T03:37:40;29.40;;;20.67;;
8319;SDS011;4197;42.130;24.746;2022-12-18T03:40:08;26.17;;;19.67;;
8319;SDS011;4197;42.130;24.746;2022-12-18T03:42:39;26.97;;;19.90;;
8319;SDS011;4197;42.130;24.746;2022-12-18T03:45:14;66.77;;;38.97;;
8319;SDS011;4197;42.130;24.746;2022-12-18T03:47:52;103.27;;;55.73;;
8319;SDS011;4197;42.130;24.746;2022-12-18T03:50:30;58.63;;;34.70;;
8319;SDS011;4197;42.130;24.746;2022-12-18T03:53:09;41.00;;;26.87;;
8319;SDS011;4197;42.130;24.746;2022-12-18T03:55:51;35.53;;;23.30;;
8319;SDS011;4197;42.130;24.746;2022-12-18T03:58:22;29.37;;;22.30;;
8319;SDS011;4197;42.130;24.746;2022-12-18T04:00:53;28.00;;;19.63;;
8319;SDS011;4197;42.130;24.746;2022-12-18T04:03:25;26.13;;;20.70;;
8319;SDS011;4197;42.130;24.746;2022-12-18T04:05:54;26.23;;;17.53;;
8319;SDS011;4197;42.130;24.746;2022-12-18T04:08:24;22.40;;;16.23;;
8319;SDS011;4197;42.130;24.746;2022-12-18T04:10:53;20.47;;;15.00;;
8319;SDS011;4197;42.130;24.746;2022-12-18T04:13:23;21.30;;;15.83;;
8319;SDS011;4197;42.130;24.746;2022-12-18T04:15:52;22.30;;;15.07;;
8319;SDS011;4197;42.130;24.746;2022-12-18T04:18:20;22.40;;;15.70;;
8319;SDS011;4197;42.130;24.746;2022-12-18T04:20:49;23.17;;;15.70;;
8319;SDS011;4197;42.130;24.746;2022-12-18T04:23:17;21.30;;;15.93;;
8319;SDS011;4197;42.130;24.746;2022-12-18T04:25:45;19.33;;;13.87;;
8319;SDS011;4197;42.130;24.746;2022-12-18T04:28:14;17.90;;;12.83;;
8319;SDS011;4197;42.130;24.746;2022-12-18T04:30:43;17.60;;;12.63;;
8319;SDS011;4197;42.130;24.746;2022-12-18T04:33:19;15.60;;;12.30;;
8319;SDS011;4197;42.130;24.746;2022-12-18T04:35:47;15.80;;;11.27;;
8319;SDS011;4197;42.130;24.746;2022-12-18T04:38:15;16.33;;;11.17;;
8319;SDS011;4197;42.130;24.746;2022-12-18T04:40:43;15.13;;;10.50;;
8319;SDS011;4197;42.130;24.746;2022-12-18T04:43:11;12.10;;;9.70;;
8319;SDS011;4197;42.130;24.746;2022-12-18T04:45:39;13.37;;;10.17;;
8319;SDS011;4197;42.130;24.746;2022-12-18T04:48:09;15.50;;;10.37;;
8319;SDS011;4197;42.130;24.746;2022-12-18T04:50:37;14.37;;;10.67;;
8319;SDS011;4197;42.130;24.746;2022-12-18T04:53:06;11.13;;;8.87;;
8319;SDS011;4197;42.130;24.746;2022-12-18T04:55:35;10.70;;;8.20;;
8319;SDS011;4197;42.130;24.746;2022-12-18T04:58:04;11.83;;;8.67;;
8319;SDS011;4197;42.130;24.746;2022-12-18T05:00:32;11.83;;;8.30;;
8319;SDS011;4197;42.130;24.746;2022-12-18T05:03:00;11.60;;;8.13;;
8319;SDS011;4197;42.130;24.746;2022-12-18T05:05:30;12.73;;;7.97;;
8319;SDS011;4197;42.130;24.746;2022-12-18T05:07:59;8.17;;;6.50;;
8319;SDS011;4197;42.130;24.746;2022-12-18T05:10:27;10.30;;;6.80;;
8319;SDS011;4197;42.130;24.746;2022-12-18T05:13:03;8.47;;;6.53;;
8319;SDS011;4197;42.130;24.746;2022-12-18T05:15:32;8.77;;;6.60;;
8319;SDS011;4197;42.130;24.746;2022-12-18T05:18:00;12.23;;;7.33;;
8319;SDS011;4197;42.130;24.746;2022-12-18T05:20:31;10.43;;;6.93;;
8319;SDS011;4197;42.130;24.746;2022-12-18T05:22:59;10.43;;;7.57;;
8319;SDS011;4197;42.130;24.746;2022-12-18T05:25:27;9.03;;;7.77;;
8319;SDS011;4197;42.130;24.746;2022-12-18T05:27:56;13.77;;;8.77;;
8319;SDS011;4197;42.130;24.746;2022-12-18T05:30:25;12.23;;;9.17;;
8319;SDS011;4197;42.130;24.746;2022-12-18T05:32:53;12.43;;;8.57;;
8319;SDS011;4197;42.130;24.746;2022-12-18T05:35:21;11.23;;;8.77;;
8319;SDS011;4197;42.130;24.746;2022-12-18T05:37:51;11.93;;;8.57;;
8319;SDS011;4197;42.130;24.746;2022-12-18T05:40:19;10.10;;;7.90;;
8319;SDS011;4197;42.130;24.746;2022-12-18T05:42:47;10.80;;;7.57;;
8319;SDS011;4197;42.130;24.746;2022-12-18T05:45:15;10.50;;;8.60;;
8319;SDS011;4197;42.130;24.746;2022-12-18T05:47:44;11.83;;;8.03;;
8319;SDS011;4197;42.130;24.746;2022-12-18T05:50:12;9.63;;;7.50;;
8319;SDS011;4197;42.130;24.746;2022-12-18T05:52:40;11.27;;;7.67;;
8319;SDS011;4197;42.130;24.746;2022-12-18T05:55:09;11.20;;;6.77;;
8319;SDS011;4197;42.130;24.746;2022-12-18T05:57:38;9.77;;;7.37;;
8319;SDS011;4197;42.130;24.746;2022-12-18T06:00:06;10.63;;;6.80;;
8319;SDS011;4197;42.130;24.746;2022-12-18T06:02:35;10.80;;;6.77;;
8319;SDS011;4197;42.130;24.746;2022-12-18T06:05:04;12.67;;;7.80;;
8319;SDS011;4197;42.130;24.746;2022-12-18T06:07:33;11.47;;;7.00;;
8319;SDS011;4197;42.130;24.746;2022-12-18T06:10:01;10.47;;;7.13;;
8319;SDS011;4197;42.130;24.746;2022-12-18T06:12:31;9.27;;;6.83;;
8319;SDS011;4197;42.130;24.746;2022-12-18T06:15:00;10.83;;;7.43;;
8319;SDS011;4197;42.130;24.746;2022-12-18T06:17:28;10.57;;;6.73;;
8319;SDS011;4197;42.130;24.746;2022-12-18T06:19:57;10.00;;;7.13;;
8319;SDS011;4197;42.130;24.746;2022-12-18T06:22:25;7.93;;;6.53;;
8319;SDS011;4197;42.130;24.746;2022-12-18T06:24:53;9.77;;;7.93;;
8319;SDS011;4197;42.130;24.746;2022-12-18T06:27:21;10.77;;;8.50;;
8319;SDS011;4197;42.130;24.746;2022-12-18T06:29:50;9.43;;;7.30;;
8319;SDS011;4197;42.130;24.746;2022-12-18T06:32:19;10.00;;;7.03;;
8319;SDS011;4197;42.130;24.746;2022-12-18T06:34:47;10.87;;;7.27;;
8319;SDS011;4197;42.130;24.746;2022-12-18T06:37:15;9.40;;;7.43;;
8319;SDS011;4197;42.130;24.746;2022-12-18T06:39:44;8.50;;;7.30;;
8319;SDS011;4197;42.130;24.746;2022-12-18T06:42:12;10.83;;;7.90;;
8319;SDS011;4197;42.130;24.746;2022-12-18T06:44:40;11.80;;;7.57;;
8319;SDS011;4197;42.130;24.746;2022-12-18T06:47:10;11.73;;;7.80;;
8319;SDS011;4197;42.130;24.746;2022-12-18T06:49:39;9.67;;;7.57;;
8319;SDS011;4197;42.130;24.746;2022-12-18T06:52:07;10.83;;;7.83;;
8319;SDS011;4197;42.130;24.746;2022-12-18T06:54:36;9.37;;;7.37;;
8319;SDS011;4197;42.130;24.746;2022-12-18T06:57:04;10.43;;;8.33;;
8319;SDS011;4197;42.130;24.746;2022-12-18T06:59:32;9.07;;;6.67;;
8319;SDS011;4197;42.130;24.746;2022-12-18T07:02:00;12.67;;;7.00;;
8319;SDS011;4197;42.130;24.746;2022-12-18T07:04:30;12.10;;;8.27;;
8319;SDS011;4197;42.130;24.746;2022-12-18T07:06:59;11.37;;;8.50;;
8319;SDS011;4197;42.130;24.746;2022-12-18T07:09:27;14.50;;;9.60;;
8319;SDS011;4197;42.130;24.746;2022-12-18T07:11:56;11.10;;;8.43;;
8319;SDS011;4197;42.130;24.746;2022-12-18T07:14:25;12.50;;;9.77;;
8319;SDS011;4197;42.130;24.746;2022-12-18T07:16:53;12.23;;;9.40;;
8319;SDS011;4197;42.130;24.746;2022-12-18T07:19:23;10.37;;;8.40;;
8319;SDS011;4197;42.130;24.746;2022-12-18T07:21:52;13.00;;;9.70;;
8319;SDS011;4197;42.130;24.746;2022-12-18T07:24:21;11.33;;;8.37;;
8319;SDS011;4197;42.130;24.746;2022-12-18T07:26:49;9.20;;;7.50;;
8319;SDS011;4197;42.130;24.746;2022-12-18T07:29:17;8.80;;;7.13;;
8319;SDS011;4197;42.130;24.746;2022-12-18T07:31:45;11.03;;;7.60;;
8319;SDS011;4197;42.130;24.746;2022-12-18T07:34:14;11.97;;;7.73;;
8319;SDS011;4197;42.130;24.746;2022-12-18T07:36:42;14.00;;;8.20;;
8319;SDS011;4197;42.130;24.746;2022-12-18T07:39:12;8.77;;;6.57;;
8319;SDS011;4197;42.130;24.746;2022-12-18T07:41:40;12.43;;;7.07;;
8319;SDS011;4197;42.130;24.746;2022-12-18T07:44:13;10.43;;;7.87;;
8319;SDS011;4197;42.130;24.746;2022-12-18T07:46:41;9.30;;;7.43;;
8319;SDS011;4197;42.130;24.746;2022-12-18T07:49:09;11.37;;;7.03;;
8319;SDS011;4197;42.130;24.746;2022-12-18T07:51:37;12.93;;;8.70;;
8319;SDS011;4197;42.130;24.746;2022-12-18T07:54:05;12.53;;;10.13;;
8319;SDS011;4197;42.130;24.746;2022-12-18T07:56:34;9.50;;;7.27;;
8319;SDS011;4197;42.130;24.746;2022-12-18T07:59:02;8.60;;;7.50;;
8319;SDS011;4197;42.130;24.746;2022-12-18T08:01:31;9.50;;;7.60;;
8319;SDS011;4197;42.130;24.746;2022-12-18T08:03:59;9.93;;;8.13;;
8319;SDS011;4197;42.130;24.746;2022-12-18T08:06:27;11.30;;;7.50;;
8319;SDS011;4197;42.130;24.746;2022-12-18T08:08:56;9.67;;;7.70;;
8319;SDS011;4197;42.130;24.746;2022-12-18T08:11:24;11.10;;;7.80;;
8319;SDS011;4197;42.130;24.746;2022-12-18T08:13:56;11.33;;;7.33;;
8319;SDS011;4197;42.130;24.746;2022-12-18T08:16:25;11.23;;;7.33;;
8319;SDS011;4197;42.130;24.746;2022-12-18T08:18:53;11.07;;;7.57;;
8319;SDS011;4197;42.130;24.746;2022-12-18T08:21:22;11.60;;;7.43;;
8319;SDS011;4197;42.130;24.746;2022-12-18T08:23:53;12.20;;;8.00;;
8319;SDS011;4197;42.130;24.746;2022-12-18T08:26:22;9.93;;;7.47;;
8319;SDS011;4197;42.130;24.746;2022-12-18T08:28:52;9.77;;;7.03;;
8319;SDS011;4197;42.130;24.746;2022-12-18T08:31:23;11.10;;;8.23;;
8319;SDS011;4197;42.130;24.746;2022-12-18T08:33:52;10.60;;;6.83;;
8319;SDS011;4197;42.130;24.746;2022-12-18T08:36:22;9.47;;;7.63;;
8319;SDS011;4197;42.130;24.746;2022-12-18T08:38:51;12.80;;;7.80;;
8319;SDS011;4197;42.130;24.746;2022-12-18T08:41:20;10.23;;;7.50;;
8319;SDS011;4197;42.130;24.746;2022-12-18T08:43:48;12.13;;;7.73;;
8319;SDS011;4197;42.130;24.746;2022-12-18T08:46:36;11.93;;;7.60;;
8319;SDS011;4197;42.130;24.746;2022-12-18T08:49:06;10.93;;;7.20;;
8319;SDS011;4197;42.130;24.746;2022-12-18T08:51:35;8.50;;;6.97;;
8319;SDS011;4197;42.130;24.746;2022-12-18T08:54:04;10.37;;;7.23;;
8319;SDS011;4197;42.130;24.746;2022-12-18T08:56:33;10.93;;;7.37;;
8319;SDS011;4197;42.130;24.746;2022-12-18T08:59:01;11.83;;;7.60;;
8319;SDS011;4197;42.130;24.746;2022-12-18T09:01:30;10.13;;;6.97;;
8319;SDS011;4197;42.130;24.746;2022-12-18T09:04:00;9.73;;;6.90;;
8319;SDS011;4197;42.130;24.746;2022-12-18T09:06:30;8.70;;;6.67;;
8319;SDS011;4197;42.130;24.746;2022-12-18T09:08:58;9.80;;;7.33;;
8319;SDS011;4197;42.130;24.746;2022-12-18T09:11:27;10.70;;;7.03;;
8319;SDS011;4197;42.130;24.746;2022-12-18T09:13:57;11.33;;;6.87;;
8319;SDS011;4197;42.130;24.746;2022-12-18T09:16:27;14.60;;;8.00;;
8319;SDS011;4197;42.130;24.746;2022-12-18T09:18:58;10.07;;;7.57;;
8319;SDS011;4197;42.130;24.746;2022-12-18T09:21:28;9.80;;;6.80;;
8319;SDS011;4197;42.130;24.746;2022-12-18T09:24:01;9.80;;;6.70;;
8319;SDS011;4197;42.130;24.746;2022-12-18T09:26:30;11.80;;;7.90;;
8319;SDS011;4197;42.130;24.746;2022-12-18T09:28:58;13.93;;;6.97;;
8319;SDS011;4197;42.130;24.746;2022-12-18T09:31:26;11.50;;;7.60;;
8319;SDS011;4197;42.130;24.746;2022-12-18T09:33:54;10.80;;;7.30;;
8319;SDS011;4197;42.130;24.746;2022-12-18T09:36:23;11.17;;;7.63;;
8319;SDS011;4197;42.130;24.746;2022-12-18T09:38:52;15.90;;;9.23;;
8319;SDS011;4197;42.130;24.746;2022-12-18T09:47:05;15.10;;;9.57;;
8319;SDS011;4197;42.130;24.746;2022-12-18T09:49:40;12.07;;;7.83;;
8319;SDS011;4197;42.130;24.746;2022-12-18T09:52:12;17.67;;;10.30;;
8319;SDS011;4197;42.130;24.746;2022-12-18T09:54:48;14.60;;;9.10;;
8319;SDS011;4197;42.130;24.746;2022-12-18T09:57:20;13.93;;;8.63;;
8319;SDS011;4197;42.130;24.746;2022-12-18T09:59:50;13.80;;;8.97;;
8319;SDS011;4197;42.130;24.746;2022-12-18T10:02:22;14.13;;;8.77;;
8319;SDS011;4197;42.130;24.746;2022-12-18T10:04:55;12.07;;;8.50;;
8319;SDS011;4197;42.130;24.746;2022-12-18T10:07:34;14.60;;;8.83;;
8319;SDS011;4197;42.130;24.746;2022-12-18T10:10:13;11.73;;;7.60;;
8319;SDS011;4197;42.130;24.746;2022-12-18T10:12:52;13.00;;;9.03;;
8319;SDS011;4197;42.130;24.746;2022-12-18T10:15:31;9.93;;;7.40;;
8319;SDS011;4197;42.130;24.746;2022-12-18T10:18:06;10.40;;;7.50;;
8319;SDS011;4197;42.130;24.746;2022-12-18T10:20:48;11.97;;;8.23;;
8319;SDS011;4197;42.130;24.746;2022-12-18T10:23:21;10.47;;;7.90;;
8319;SDS011;4197;42.130;24.746;2022-12-18T10:25:59;11.50;;;8.07;;
8319;SDS011;4197;42.130;24.746;2022-12-18T10:28:31;15.30;;;9.10;;
8319;SDS011;4197;42.130;24.746;2022-12-18T10:31:00;12.30;;;8.77;;
8319;SDS011;4197;42.130;24.746;2022-12-18T10:33:29;16.77;;;11.13;;
8319;SDS011;4197;42.130;24.746;2022-12-18T10:35:59;14.10;;;8.87;;
8319;SDS011;4197;42.130;24.746;2022-12-18T10:38:28;11.03;;;8.17;;
8319;SDS011;4197;42.130;24.746;2022-12-18T10:40:59;12.57;;;8.07;;
8319;SDS011;4197;42.130;24.746;2022-12-18T10:43:30;9.50;;;7.53;;
8319;SDS011;4197;42.130;24.746;2022-12-18T10:46:01;11.93;;;8.50;;
8319;SDS011;4197;42.130;24.746;2022-12-18T10:48:47;11.63;;;7.63;;
8319;SDS011;4197;42.130;24.746;2022-12-18T10:51:19;12.80;;;9.20;;
8319;SDS011;4197;42.130;24.746;2022-12-18T10:53:53;21.67;;;12.87;;
8319;SDS011;4197;42.130;24.746;2022-12-18T10:56:26;15.27;;;10.37;;
8319;SDS011;4197;42.130;24.746;2022-12-18T10:58:58;12.43;;;8.47;;
8319;SDS011;4197;42.130;24.746;2022-12-18T11:01:27;13.77;;;9.40;;
8319;SDS011;4197;42.130;24.746;2022-12-18T11:03:59;13.80;;;8.83;;
8319;SDS011;4197;42.130;24.746;2022-12-18T11:06:29;13.83;;;9.23;;
8319;SDS011;4197;42.130;24.746;2022-12-18T11:08:58;12.17;;;8.40;;
8319;SDS011;4197;42.130;24.746;2022-12-18T11:11:34;13.80;;;8.70;;
8319;SDS011;4197;42.130;24.746;2022-12-18T11:14:03;11.13;;;8.13;;
8319;SDS011;4197;42.130;24.746;2022-12-18T11:16:33;12.27;;;9.30;;
8319;SDS011;4197;42.130;24.746;2022-12-18T11:19:10;13.93;;;9.20;;
8319;SDS011;4197;42.130;24.746;2022-12-18T11:21:48;9.83;;;8.23;;
8319;SDS011;4197;42.130;24.746;2022-12-18T11:24:20;10.63;;;8.47;;
8319;SDS011;4197;42.130;24.746;2022-12-18T11:26:56;11.37;;;8.23;;
8319;SDS011;4197;42.130;24.746;2022-12-18T11:29:29;11.80;;;8.83;;
8319;SDS011;4197;42.130;24.746;2022-12-18T11:32:12;13.27;;;8.20;;
8319;SDS011;4197;42.130;24.746;2022-12-18T11:35:11;10.60;;;7.83;;
8319;SDS011;4197;42.130;24.746;2022-12-18T11:37:46;12.90;;;8.50;;
8319;SDS011;4197;42.130;24.746;2022-12-18T11:40:19;11.40;;;8.83;;
8319;SDS011;4197;42.130;24.746;2022-12-18T11:42:51;14.90;;;9.57;;
8319;SDS011;4197;42.130;24.746;2022-12-18T11:45:27;12.93;;;9.07;;
8319;SDS011;4197;42.130;24.746;2022-12-18T11:47:58;16.43;;;9.53;;
8319;SDS011;4197;42.130;24.746;2022-12-18T11:50:45;11.90;;;8.60;;
8319;SDS011;4197;42.130;24.746;2022-12-18T11:53:16;16.23;;;9.90;;
8319;SDS011;4197;42.130;24.746;2022-12-18T11:55:50;14.70;;;10.30;;
8319;SDS011;4197;42.130;24.746;2022-12-18T11:58:56;13.77;;;8.97;;
8319;SDS011;4197;42.130;24.746;2022-12-18T12:01:34;17.23;;;11.43;;
8319;SDS011;4197;42.130;24.746;2022-12-18T12:07:29;14.33;;;10.27;;
8319;SDS011;4197;42.130;24.746;2022-12-18T12:10:09;17.87;;;11.33;;
8319;SDS011;4197;42.130;24.746;2022-12-18T12:12:54;16.70;;;10.20;;
8319;SDS011;4197;42.130;24.746;2022-12-18T12:15:37;13.77;;;10.07;;
8319;SDS011;4197;42.130;24.746;2022-12-18T12:18:16;15.07;;;10.37;;
8319;SDS011;4197;42.130;24.746;2022-12-18T12:20:59;16.63;;;11.87;;
8319;SDS011;4197;42.130;24.746;2022-12-18T12:23:38;14.57;;;10.73;;
8319;SDS011;4197;42.130;24.746;2022-12-18T12:26:16;23.13;;;13.73;;
8319;SDS011;4197;42.130;24.746;2022-12-18T12:31:55;15.10;;;10.93;;
8319;SDS011;4197;42.130;24.746;2022-12-18T12:34:43;17.70;;;12.10;;
8319;SDS011;4197;42.130;24.746;2022-12-18T12:37:30;18.70;;;12.73;;
8319;SDS011;4197;42.130;24.746;2022-12-18T12:40:10;15.47;;;10.03;;
8319;SDS011;4197;42.130;24.746;2022-12-18T12:43:03;16.37;;;11.33;;
8319;SDS011;4197;42.130;24.746;2022-12-18T12:45:44;19.83;;;14.37;;
8319;SDS011;4197;42.130;24.746;2022-12-18T12:48:19;15.27;;;10.57;;
8319;SDS011;4197;42.130;24.746;2022-12-18T12:51:11;14.23;;;10.37;;
8319;SDS011;4197;42.130;24.746;2022-12-18T12:53:45;16.87;;;10.43;;
8319;SDS011;4197;42.130;24.746;2022-12-18T12:56:15;13.23;;;8.47;;
8319;SDS011;4197;42.130;24.746;2022-12-18T12:58:48;14.17;;;9.73;;
8319;SDS011;4197;42.130;24.746;2022-12-18T13:01:27;11.87;;;7.50;;
8319;SDS011;4197;42.130;24.746;2022-12-18T13:04:03;13.73;;;9.03;;
8319;SDS011;4197;42.130;24.746;2022-12-18T13:06:44;10.00;;;7.87;;
8319;SDS011;4197;42.130;24.746;2022-12-18T13:09:17;13.03;;;8.97;;
8319;SDS011;4197;42.130;24.746;2022-12-18T13:11:46;13.73;;;9.27;;
8319;SDS011;4197;42.130;24.746;2022-12-18T13:14:33;14.23;;;9.77;;
8319;SDS011;4197;42.130;24.746;2022-12-18T13:17:16;12.83;;;8.20;;
8319;SDS011;4197;42.130;24.746;2022-12-18T13:20:07;10.73;;;8.30;;
8319;SDS011;4197;42.130;24.746;2022-12-18T13:22:40;15.47;;;9.93;;
8319;SDS011;4197;42.130;24.746;2022-12-18T13:25:30;14.70;;;9.93;;
8319;SDS011;4197;42.130;24.746;2022-12-18T13:28:00;14.23;;;10.10;;
8319;SDS011;4197;42.130;24.746;2022-12-18T13:30:45;13.63;;;9.50;;
8319;SDS011;4197;42.130;24.746;2022-12-18T13:36:36;17.30;;;10.80;;
8319;SDS011;4197;42.130;24.746;2022-12-18T13:39:11;13.77;;;10.03;;
8319;SDS011;4197;42.130;24.746;2022-12-18T13:45:35;18.63;;;13.27;;
8319;SDS011;4197;42.130;24.746;2022-12-18T13:48:18;19.33;;;13.67;;
8319;SDS011;4197;42.130;24.746;2022-12-18T13:50:52;18.47;;;12.97;;
8319;SDS011;4197;42.130;24.746;2022-12-18T13:53:26;19.63;;;13.40;;
8319;SDS011;4197;42.130;24.746;2022-12-18T13:55:58;22.60;;;14.47;;
8319;SDS011;4197;42.130;24.746;2022-12-18T13:58:27;28.33;;;21.00;;
8319;SDS011;4197;42.130;24.746;2022-12-18T14:00:55;30.80;;;20.13;;
8319;SDS011;4197;42.130;24.746;2022-12-18T14:03:26;27.07;;;19.00;;
8319;SDS011;4197;42.130;24.746;2022-12-18T14:06:01;29.80;;;18.43;;
8319;SDS011;4197;42.130;24.746;2022-12-18T14:08:34;27.63;;;17.27;;
8319;SDS011;4197;42.130;24.746;2022-12-18T14:11:07;23.47;;;16.33;;
8319;SDS011;4197;42.130;24.746;2022-12-18T14:13:48;22.07;;;16.07;;
8319;SDS011;4197;42.130;24.746;2022-12-18T14:16:17;29.33;;;19.37;;
8319;SDS011;4197;42.130;24.746;2022-12-18T14:18:46;37.90;;;27.30;;
8319;SDS011;4197;42.130;24.746;2022-12-18T14:21:24;36.37;;;21.90;;
8319;SDS011;4197;42.130;24.746;2022-12-18T14:24:06;24.87;;;17.47;;
8319;SDS011;4197;42.130;24.746;2022-12-18T14:26:45;28.43;;;17.20;;
8319;SDS011;4197;42.130;24.746;2022-12-18T14:29:20;22.30;;;15.20;;
8319;SDS011;4197;42.130;24.746;2022-12-18T14:32:06;20.60;;;14.80;;
8319;SDS011;4197;42.130;24.746;2022-12-18T14:34:43;21.10;;;14.13;;
8319;SDS011;4197;42.130;24.746;2022-12-18T14:37:12;26.70;;;16.97;;
8319;SDS011;4197;42.130;24.746;2022-12-18T14:39:53;20.00;;;15.47;;
8319;SDS011;4197;42.130;24.746;2022-12-18T14:42:23;20.80;;;15.47;;
8319;SDS011;4197;42.130;24.746;2022-12-18T14:48:11;21.63;;;14.70;;
8319;SDS011;4197;42.130;24.746;2022-12-18T14:50:54;29.30;;;17.70;;
8319;SDS011;4197;42.130;24.746;2022-12-18T14:53:28;24.43;;;17.10;;
8319;SDS011;4197;42.130;24.746;2022-12-18T14:56:04;29.77;;;19.37;;
8319;SDS011;4197;42.130;24.746;2022-12-18T14:58:45;26.07;;;18.43;;
8319;SDS011;4197;42.130;24.746;2022-12-18T15:01:21;28.70;;;18.40;;
8319;SDS011;4197;42.130;24.746;2022-12-18T15:03:52;28.53;;;19.70;;
8319;SDS011;4197;42.130;24.746;2022-12-18T15:06:31;28.00;;;19.70;;
8319;SDS011;4197;42.130;24.746;2022-12-18T15:09:03;27.10;;;18.10;;
8319;SDS011;4197;42.130;24.746;2022-12-18T15:11:36;29.03;;;18.97;;
8319;SDS011;4197;42.130;24.746;2022-12-18T15:17:14;28.17;;;20.57;;
8319;SDS011;4197;42.130;24.746;2022-12-18T15:19:51;30.17;;;19.93;;
8319;SDS011;4197;42.130;24.746;2022-12-18T15:22:22;31.27;;;19.30;;
8319;SDS011;4197;42.130;24.746;2022-12-18T15:24:53;31.07;;;20.33;;
8319;SDS011;4197;42.130;24.746;2022-12-18T15:27:25;31.23;;;21.63;;
8319;SDS011;4197;42.130;24.746;2022-12-18T15:30:00;31.00;;;21.20;;
8319;SDS011;4197;42.130;24.746;2022-12-18T15:32:31;29.87;;;21.40;;
8319;SDS011;4197;42.130;24.746;2022-12-18T15:35:08;27.87;;;20.10;;
8319;SDS011;4197;42.130;24.746;2022-12-18T15:37:42;30.37;;;20.57;;